Main page
METAR-TAF:

METAR-TAF

Airports :

Nörvenich Air Base

Nörvenich, Germany

latitude: 50-50N, longitude: 006-40E, elevation: 118 m

Current weather observation

The report was made 1 hour and 1 minutes ago, at 04:20 UTC
Wind 3 kt from the East
Temperature 12°C
Humidity 94%
Pressure 1020 hPa
Visibility 10 km or more
Few clouds at a height of 12000 ft
Scattered clouds at a height of 26000 ft

METAR: ETNN 200420Z 08003KT 9999 FEW120 SCT260 12/11 Q1020 BLU+

Time: 07:21 (05:21 UTC)

Forecast

The report was made 1 hour and 2 minutes ago, at 04:19 UTC
Forecast valid from 20 at 05 UTC to 20 at 14 UTC
Wind 5 kt from the East
Visibility 10 km or more
Few clouds at a height of 6000 ft
Broken clouds at a height of 12000 ft
Temporary
from 20 at 11 UTC to 20 at 14 UTC
Wind 8 kt from the East
Visibility: 5000 m
Broken clouds at a height of 2200 ft
Broken clouds at a height of 5000 ft, Cumulonimbus.
rain showers,

TAF: ETNN 200419Z 2005/2014 08005KT 9999 NSW FEW060 BKN120 TEMPO 2011/2014 10008KT 5000 SHRA BKN022 BKN050CB

Weather observations and forecasts of more than 4000 airports (METAR and TAF reports).

The available stations are represented by yellow and red dots on the map.

Hover mouse over dot to see the name of the station.

Then click to see weather observations and forecasts.

To change the map : click on the green buttons with a black cross to zoom in, on the green button with a dash to zoom out, or on the green arrows for adjacent maps.


METAR-TAF: